Time;durP1;ratioP1;P1;durP2;ratioP2;P2;SDS_P1;SDS_P2;PMS_P1;PMS_P2;Temp;Humidity;BMP_temperature;BMP_pressure;BME280_temperature;BME280_humidity;BME280_pressure;Samples;Min_cycle;Max_cycle;Signal;HPM_P1;HPM_P2
2022/01/05 00:02:10;;;;;;;3.60;2.20;;;;;;;7.12;75.25;96798.15;104700;1271;75908;-21
2022/01/05 00:04:38;;;;;;;2.80;2.00;;;;;;;7.01;75.44;96802.23;104824;1269;73419;-20
2022/01/05 00:07:07;;;;;;;2.10;1.70;;;;;;;6.82;75.90;96789.66;104844;1271;61630;-21
2022/01/05 00:09:35;;;;;;;3.30;2.20;;;;;;;6.77;76.30;96793.16;104880;1270;61131;-21
2022/01/05 00:12:21;;;;;;;4.30;2.70;;;;;;;7.07;75.22;96800.29;104860;1270;75401;-21
2022/01/05 00:14:49;;;;;;;2.20;1.70;;;;;;;7.17;75.09;96796.34;104877;1270;75930;-20
2022/01/05 00:17:18;;;;;;;5.00;2.90;;;;;;;6.91;75.39;96791.06;104816;1271;73255;-21
2022/01/05 00:19:46;;;;;;;3.80;1.80;;;;;;;6.81;75.80;96788.91;105010;1270;61184;-21
2022/01/05 00:22:15;;;;;;;4.10;2.20;;;;;;;6.71;76.54;96791.13;104870;1270;61060;-21
2022/01/05 00:24:43;;;;;;;4.60;3.00;;;;;;;7.15;75.10;96797.18;104782;1270;74672;-21
2022/01/05 00:27:12;;;;;;;5.30;3.00;;;;;;;7.34;74.22;96795.30;104874;1271;74294;-21
2022/01/05 00:29:40;;;;;;;3.20;2.20;;;;;;;7.26;74.24;96784.67;105083;1271;74360;-20
2022/01/05 00:32:09;;;;;;;5.70;3.70;;;;;;;7.01;74.86;96784.67;105119;1270;61067;-21
2022/01/05 00:34:37;;;;;;;5.50;3.20;;;;;;;6.94;75.25;96800.40;105201;1270;61821;-21
2022/01/05 00:37:06;;;;;;;3.70;2.50;;;;;;;6.91;75.80;96798.06;105070;1270;75418;-20
2022/01/05 00:39:34;;;;;;;5.10;2.90;;;;;;;7.25;74.73;96793.41;104876;1270;75808;-21
2022/01/05 00:42:04;;;;;;;6.50;3.60;;;;;;;7.63;73.63;96794.86;104909;1270;74499;-21
2022/01/05 00:44:32;;;;;;;4.50;3.40;;;;;;;7.62;73.26;96789.42;104711;1271;61128;-21
2022/01/05 00:47:00;;;;;;;5.70;3.10;;;;;;;7.39;74.01;96798.39;105022;1270;61520;-21
2022/01/05 00:49:30;;;;;;;6.40;2.70;;;;;;;7.06;75.19;96791.27;105091;1270;75734;-20
2022/01/05 00:51:58;;;;;;;2.70;2.00;;;;;;;6.87;75.97;96783.79;105023;1270;74714;-21
2022/01/05 00:54:26;;;;;;;4.10;2.40;;;;;;;7.32;75.47;96781.33;104843;1270;74568;-21
2022/01/05 00:56:54;;;;;;;4.30;2.40;;;;;;;7.43;74.81;96771.76;105059;1270;61806;-21
2022/01/05 00:59:24;;;;;;;7.90;2.70;;;;;;;7.14;75.62;96762.66;105130;1270;61894;-21
2022/01/05 01:01:52;;;;;;;4.50;2.60;;;;;;;6.93;76.49;96753.95;104996;1271;73695;-20
2022/01/05 01:04:20;;;;;;;2.00;1.40;;;;;;;6.76;77.28;96745.17;104917;1270;75133;-21
2022/01/05 01:06:49;;;;;;;3.10;2.10;;;;;;;6.91;77.12;96745.85;105128;1271;74429;-21
2022/01/05 01:09:17;;;;;;;3.50;2.10;;;;;;;7.32;75.63;96737.12;105088;1270;61273;-21
2022/01/05 01:11:45;;;;;;;4.20;1.90;;;;;;;7.24;75.57;96736.91;105138;1270;61824;-20
2022/01/05 01:14:14;;;;;;;4.50;2.60;;;;;;;7.00;76.27;96739.41;104929;1270;75804;-21
2022/01/05 01:16:42;;;;;;;2.50;1.60;;;;;;;6.74;77.11;96736.54;104897;1270;76039;-20
2022/01/05 01:19:11;;;;;;;3.40;2.30;;;;;;;6.96;76.61;96741.14;105000;1270;74502;-20
2022/01/05 01:21:40;;;;;;;4.10;1.80;;;;;;;7.30;75.50;96733.91;104856;1270;61482;-20
2022/01/05 01:24:08;;;;;;;3.10;1.80;;;;;;;7.26;75.26;96733.23;104873;1270;61016;-21
2022/01/05 01:26:36;;;;;;;6.50;2.10;;;;;;;7.17;75.59;96739.91;104908;1270;76022;-20
2022/01/05 01:29:04;;;;;;;3.00;1.50;;;;;;;6.99;75.83;96737.63;104924;1270;75016;-20
2022/01/05 01:31:32;;;;;;;3.10;2.10;;;;;;;7.10;76.11;96733.05;104850;1270;74406;-20
2022/01/05 01:34:01;;;;;;;4.50;2.10;;;;;;;7.43;74.83;96731.88;104965;1270;61147;-20
2022/01/05 01:36:30;;;;;;;5.70;1.80;;;;;;;7.59;74.08;96731.38;105073;1270;61032;-21
2022/01/05 01:38:59;;;;;;;2.00;1.50;;;;;;;7.40;74.33;96729.90;105122;1271;74342;-20
2022/01/05 01:41:27;;;;;;;5.40;2.00;;;;;;;7.17;74.79;96729.56;105051;1270;75901;-20
2022/01/05 01:43:56;;;;;;;3.00;1.20;;;;;;;7.01;75.44;96737.55;105020;1271;73570;-20
2022/01/05 01:46:24;;;;;;;1.70;1.30;;;;;;;7.19;75.72;96738.63;105142;1270;61053;-20
2022/01/05 01:48:53;;;;;;;1.80;1.10;;;;;;;7.57;74.11;96728.75;105150;1273;61154;-20
2022/01/05 01:51:21;;;;;;;2.90;1.60;;;;;;;7.47;74.08;96731.27;105102;1273;75262;-20
2022/01/05 01:53:49;;;;;;;1.30;1.10;;;;;;;7.41;74.33;96724.98;105035;1273;76073;-20
2022/01/05 01:56:18;;;;;;;4.00;1.40;;;;;;;7.30;74.52;96724.79;104726;1273;74261;-20
2022/01/05 01:58:48;;;;;;;2.40;1.30;;;;;;;7.21;75.13;96728.05;104662;1273;62423;-20
2022/01/05 02:01:16;;;;;;;3.90;1.40;;;;;;;7.66;73.88;96727.23;104896;1274;61059;-20
2022/01/05 02:03:45;;;;;;;2.10;1.40;;;;;;;7.77;73.38;96723.14;104824;1271;371843;-21
2022/01/05 02:06:13;;;;;;;3.00;1.60;;;;;;;7.77;73.38;96726.53;105122;1273;73914;-21
2022/01/05 02:08:41;;;;;;;2.20;1.60;;;;;;;7.57;73.90;96723.15;105121;1272;74216;-21
2022/01/05 02:11:11;;;;;;;2.90;1.50;;;;;;;7.30;74.77;96719.54;105082;1274;61126;-20
2022/01/05 02:13:40;;;;;;;2.40;1.50;;;;;;;7.49;74.72;96725.68;105008;1273;62440;-20
2022/01/05 02:16:08;;;;;;;1.90;1.30;;;;;;;7.76;73.75;96726.15;104832;1274;74648;-21
2022/01/05 02:21:11;;;;;;;3.50;1.60;;;;;;;7.57;73.91;96719.34;104776;1273;74396;-21
2022/01/05 02:23:39;;;;;;;3.80;1.30;;;;;;;7.34;74.66;96721.90;104948;1273;62238;-22
2022/01/05 02:26:07;;;;;;;3.40;1.60;;;;;;;7.38;75.15;96718.54;105102;1271;61038;-23
2022/01/05 02:28:37;;;;;;;3.00;1.30;;;;;;;7.80;73.39;96718.92;104921;1274;75689;-23
2022/01/05 02:31:05;;;;;;;1.80;1.40;;;;;;;7.78;73.30;96720.22;104724;1273;75831;-22
2022/01/05 02:33:34;;;;;;;1.40;1.10;;;;;;;7.60;73.56;96711.60;105094;1273;74138;-22
2022/01/05 02:36:04;;;;;;;2.10;1.50;;;;;;;7.28;74.61;96715.14;104866;1273;61401;-20
2022/01/05 02:38:32;;;;;;;3.00;1.50;;;;;;;7.25;74.65;96720.13;104817;1271;61925;-22
2022/01/05 02:41:09;;;;;;;3.50;1.50;;;;;;;7.51;74.33;96716.00;104838;1273;73491;-22
2022/01/05 02:43:38;;;;;;;3.00;0.80;;;;;;;7.74;73.43;96714.91;104809;1273;74614;-22
2022/01/05 02:46:14;;;;;;;1.20;0.90;;;;;;;7.77;73.11;96719.67;104977;1273;74388;-22
2022/01/05 02:48:45;;;;;;;2.60;1.20;;;;;;;7.48;73.87;96729.48;104974;1271;61182;-22
2022/01/05 02:51:13;;;;;;;2.20;1.30;;;;;;;7.29;74.57;96736.02;105051;1271;61804;-21
2022/01/05 02:53:41;;;;;;;1.80;1.30;;;;;;;7.48;74.56;96726.66;104855;1273;75673;-21
2022/01/05 02:56:09;;;;;;;1.80;1.40;;;;;;;7.85;73.33;96713.27;104746;1273;74125;-21
2022/01/05 02:58:38;;;;;;;1.90;1.30;;;;;;;8.01;72.63;96731.09;104803;1271;74405;-21
2022/01/05 03:01:07;;;;;;;1.00;0.90;;;;;;;7.86;72.96;96732.48;104768;1271;61008;-21
2022/01/05 03:03:35;;;;;;;3.90;1.70;;;;;;;7.76;73.44;96737.06;104791;1271;61039;-21
2022/01/05 03:06:04;;;;;;;2.30;1.30;;;;;;;7.65;73.71;96728.85;104749;1271;75554;-22
2022/01/05 03:08:32;;;;;;;1.80;1.30;;;;;;;7.98;73.23;96727.80;104928;1273;75634;-21
2022/01/05 03:11:00;;;;;;;2.10;1.70;;;;;;;8.14;72.46;96720.33;105076;1273;73915;-21
2022/01/05 03:13:29;;;;;;;5.00;1.40;;;;;;;8.12;72.44;96712.98;105127;1271;61130;-21
2022/01/05 03:15:57;;;;;;;2.50;1.60;;;;;;;7.98;72.83;96728.12;105093;1271;61709;-22
2022/01/05 03:18:26;;;;;;;1.00;0.90;;;;;;;7.83;73.52;96736.27;105116;1271;74630;-21
2022/01/05 03:20:54;;;;;;;1.90;1.40;;;;;;;7.97;73.60;96741.14;105116;1271;77215;-22
2022/01/05 03:23:22;;;;;;;2.30;1.50;;;;;;;8.33;72.41;96736.41;105135;1271;73113;-22
2022/01/05 03:25:50;;;;;;;1.80;1.40;;;;;;;8.50;71.69;96737.47;104869;1271;61148;-22
2022/01/05 03:28:18;;;;;;;3.50;1.90;;;;;;;8.28;72.15;96733.58;104930;1271;61022;-22
2022/01/05 03:30:47;;;;;;;2.70;1.90;;;;;;;8.04;73.02;96732.98;104900;1271;75587;-22
2022/01/05 03:33:19;;;;;;;1.80;1.30;;;;;;;7.88;73.71;96733.36;104856;1271;75968;-22
2022/01/05 03:35:48;;;;;;;3.30;1.90;;;;;;;8.13;73.51;96740.67;104759;1271;73452;-22
2022/01/05 03:38:17;;;;;;;6.80;2.10;;;;;;;8.47;72.23;96744.31;104998;1271;61106;-22
2022/01/05 03:40:46;;;;;;;2.40;1.70;;;;;;;8.46;72.01;96756.33;104927;1271;61845;-22
2022/01/05 03:43:15;;;;;;;2.90;1.90;;;;;;;8.30;72.71;96751.65;104794;1272;75558;-22
2022/01/05 03:45:43;;;;;;;3.10;1.80;;;;;;;8.14;73.09;96753.83;104855;1271;76071;-25
2022/01/05 03:48:13;;;;;;;4.70;1.50;;;;;;;7.99;73.78;96732.31;104782;1271;74365;-23
2022/01/05 03:50:41;;;;;;;2.40;1.50;;;;;;;8.20;73.68;96741.52;104646;1270;62197;-22
2022/01/05 03:53:10;;;;;;;2.30;1.70;;;;;;;8.62;72.42;96742.84;104960;1271;61045;-22
2022/01/05 03:55:40;;;;;;;2.80;2.00;;;;;;;8.71;71.93;96733.20;105011;1270;75301;-21
2022/01/05 03:58:09;;;;;;;3.70;2.30;;;;;;;8.57;72.16;96739.07;104460;1270;76088;-25
2022/01/05 04:00:43;;;;;;;3.40;2.40;;;;;;;8.36;72.82;96737.30;104855;1270;73536;-23
2022/01/05 04:03:11;;;;;;;4.40;2.00;;;;;;;8.19;73.72;96743.30;104796;1270;62120;-23
2022/01/05 04:05:41;;;;;;;2.10;1.70;;;;;;;8.40;73.54;96746.98;104933;1270;61111;-22
2022/01/05 04:08:10;;;;;;;2.50;2.10;;;;;;;8.86;71.99;96744.60;104829;1270;75272;-22
2022/01/05 04:10:39;;;;;;;5.10;1.90;;;;;;;8.89;71.84;96741.95;104877;1270;75204;-23
2022/01/05 04:13:07;;;;;;;3.90;1.90;;;;;;;8.73;72.03;96750.41;105097;1270;73470;-22
2022/01/05 04:15:36;;;;;;;4.70;2.50;;;;;;;8.63;72.38;96737.95;105144;1270;62083;-24
2022/01/05 04:18:04;;;;;;;4.80;2.10;;;;;;;8.38;73.05;96739.34;105044;1270;61040;-24
2022/01/05 04:20:33;;;;;;;2.30;1.90;;;;;;;8.40;73.47;96750.10;104842;1270;74777;-24
2022/01/05 04:23:01;;;;;;;3.40;2.00;;;;;;;8.82;72.39;96765.61;104815;1270;76248;-25
2022/01/05 04:25:32;;;;;;;6.50;2.40;;;;;;;8.97;71.60;96778.71;104927;1270;73650;-28
2022/01/05 04:28:02;;;;;;;4.00;2.60;;;;;;;8.83;71.66;96769.30;104705;1271;62070;-25
2022/01/05 04:30:30;;;;;;;3.40;2.70;;;;;;;8.63;72.54;96774.19;104710;1270;61046;-24
2022/01/05 04:32:59;;;;;;;5.80;2.60;;;;;;;8.39;73.14;96783.20;104924;1270;75867;-24
2022/01/05 04:35:47;;;;;;;3.70;2.10;;;;;;;8.47;73.70;96789.77;104967;1270;76134;-24
2022/01/05 04:38:16;;;;;;;2.90;2.30;;;;;;;8.87;72.36;96789.05;104917;1270;74063;-23
2022/01/05 04:40:44;;;;;;;3.70;1.90;;;;;;;8.93;71.68;96784.08;105077;1270;62348;-23
2022/01/05 04:43:12;;;;;;;4.10;2.90;;;;;;;8.81;72.20;96784.89;104992;1270;61118;-24
2022/01/05 04:45:41;;;;;;;3.70;2.70;;;;;;;8.64;72.79;96778.52;105033;1270;75480;-25
2022/01/05 04:48:12;;;;;;;3.80;2.60;;;;;;;8.46;73.32;96790.59;105137;1270;76032;-25
2022/01/05 04:50:40;;;;;;;2.20;1.40;;;;;;;8.40;74.12;96799.33;105108;1270;73113;-25
2022/01/05 04:53:11;;;;;;;3.20;2.00;;;;;;;8.96;72.65;96804.57;105098;1273;62743;-25
2022/01/05 04:55:41;;;;;;;3.10;2.30;;;;;;;9.17;71.58;96805.98;105045;1270;61118;-25
2022/01/05 04:58:10;;;;;;;3.00;1.80;;;;;;;9.12;71.40;96814.41;104891;1270;74528;-24
2022/01/05 05:00:38;;;;;;;6.20;3.40;;;;;;;8.92;71.99;96804.79;104700;1272;75899;-24
2022/01/05 05:03:07;;;;;;;4.60;3.20;;;;;;;8.74;72.68;96808.60;104917;1270;74758;-23
2022/01/05 05:05:35;;;;;;;4.80;2.00;;;;;;;8.60;73.40;96813.96;104920;1270;61136;-23
2022/01/05 05:08:04;;;;;;;3.50;2.70;;;;;;;8.84;73.10;96815.04;105150;1270;61157;-23
2022/01/05 05:10:33;;;;;;;4.20;2.60;;;;;;;9.26;71.55;96823.05;104962;1270;74959;-23
2022/01/05 05:13:09;;;;;;;3.30;2.50;;;;;;;9.27;71.20;96828.33;104927;1270;75829;-23
2022/01/05 05:15:38;;;;;;;3.00;2.20;;;;;;;9.14;71.69;96828.38;105022;1270;75216;-23
2022/01/05 05:18:07;;;;;;;3.00;2.10;;;;;;;8.97;72.32;96835.81;104916;1271;61077;-23
2022/01/05 05:20:36;;;;;;;16.60;4.80;;;;;;;8.83;72.99;96848.45;105137;1270;61135;-23
2022/01/05 05:23:04;;;;;;;4.60;2.70;;;;;;;8.98;72.72;96855.70;104885;1270;75525;-23
2022/01/05 05:25:33;;;;;;;3.50;2.50;;;;;;;9.38;71.31;96864.33;104971;1270;76002;-22
2022/01/05 05:28:01;;;;;;;2.90;2.00;;;;;;;9.42;71.25;96873.95;104881;1270;75057;-23
2022/01/05 05:30:34;;;;;;;3.70;2.90;;;;;;;9.29;71.30;96876.36;105024;1270;62373;-23
2022/01/05 05:33:03;;;;;;;3.50;2.60;;;;;;;9.06;72.13;96883.54;105012;1270;61763;-24
2022/01/05 05:35:32;;;;;;;4.00;2.00;;;;;;;8.92;72.87;96887.65;105127;1270;75555;-23
2022/01/05 05:38:01;;;;;;;2.80;2.20;;;;;;;8.96;73.06;96890.69;105098;1270;75968;-23
2022/01/05 05:40:29;;;;;;;2.80;2.40;;;;;;;9.42;71.53;96887.04;105160;1270;74598;-23
2022/01/05 05:42:57;;;;;;;5.10;2.60;;;;;;;9.49;71.03;96896.48;105065;1270;61178;-23
2022/01/05 05:45:26;;;;;;;5.50;3.10;;;;;;;9.35;71.41;96899.77;105096;1270;61124;-23
2022/01/05 05:47:55;;;;;;;3.60;2.70;;;;;;;9.13;72.17;96908.08;104989;1270;74577;-23
2022/01/05 05:50:23;;;;;;;4.70;3.00;;;;;;;8.91;73.05;96919.94;104952;1270;75968;-23
2022/01/05 05:52:51;;;;;;;5.20;2.40;;;;;;;8.76;73.56;96924.00;105008;1270;73416;-23
2022/01/05 05:55:19;;;;;;;3.40;2.50;;;;;;;8.93;73.40;96926.54;104879;1270;61135;-23
2022/01/05 05:57:48;;;;;;;3.00;2.20;;;;;;;9.33;71.78;96931.70;104882;1270;61107;-23
2022/01/05 06:00:16;;;;;;;3.90;2.50;;;;;;;9.35;71.14;96933.25;104749;1270;74289;-23
2022/01/05 06:02:47;;;;;;;3.50;2.80;;;;;;;9.21;71.91;96949.50;104989;1270;74909;-23
2022/01/05 06:05:16;;;;;;;4.90;3.10;;;;;;;9.00;72.70;96950.86;104934;1271;74417;-23
2022/01/05 06:07:44;;;;;;;4.10;2.70;;;;;;;8.83;73.33;96963.05;105135;1270;61642;-23
2022/01/05 06:10:12;;;;;;;2.40;1.90;;;;;;;8.72;73.92;96964.71;105090;1270;61752;-23
2022/01/05 06:12:44;;;;;;;2.90;2.30;;;;;;;9.02;72.96;96963.13;105122;1270;75498;-23
2022/01/05 06:15:13;;;;;;;3.80;2.70;;;;;;;9.24;72.28;96964.36;105133;1270;75178;-23
2022/01/05 06:17:41;;;;;;;4.20;1.80;;;;;;;9.11;72.63;96970.77;105090;1270;74199;-24
2022/01/05 06:20:12;;;;;;;4.10;2.60;;;;;;;8.89;73.38;96975.75;105125;1270;61137;-23
2022/01/05 06:22:41;;;;;;;2.80;1.70;;;;;;;8.71;74.07;96986.92;105070;1270;61144;-23
2022/01/05 06:25:11;;;;;;;4.00;1.70;;;;;;;8.56;74.69;96989.58;104886;1270;74774;-23
2022/01/05 06:27:41;;;;;;;2.20;1.90;;;;;;;8.77;74.33;96993.45;104688;1270;76059;-23
2022/01/05 06:30:10;;;;;;;3.60;2.10;;;;;;;9.10;73.25;97001.86;104758;1270;73428;-24
2022/01/05 06:32:45;;;;;;;2.50;2.00;;;;;;;8.99;73.18;96996.14;105114;1270;61451;-23
2022/01/05 06:35:14;;;;;;;3.90;2.20;;;;;;;8.81;73.99;97009.79;104779;1273;61046;-23
2022/01/05 06:37:43;;;;;;;3.10;2.40;;;;;;;8.70;74.41;97012.91;104945;1270;74616;-23
2022/01/05 06:40:12;;;;;;;3.20;2.20;;;;;;;8.53;74.93;97021.25;104939;1270;76141;-23
2022/01/05 06:42:40;;;;;;;3.10;1.90;;;;;;;8.75;74.47;97020.17;104660;1272;74446;-24
2022/01/05 06:45:09;;;;;;;2.30;1.90;;;;;;;9.02;73.17;97021.89;104963;1270;61128;-24
2022/01/05 06:47:37;;;;;;;2.70;1.70;;;;;;;9.01;72.81;97022.09;105128;1270;62121;-23
2022/01/05 06:50:06;;;;;;;3.00;2.00;;;;;;;8.81;73.33;97030.78;105163;1270;75542;-23
2022/01/05 06:52:34;;;;;;;1.80;1.40;;;;;;;8.54;74.54;97033.73;104940;1270;74901;-24
2022/01/05 06:55:05;;;;;;;2.90;1.70;;;;;;;8.39;74.72;97039.81;105170;1270;74284;-23
2022/01/05 06:57:33;;;;;;;4.90;2.50;;;;;;;8.44;74.75;97050.67;105011;1271;63489;-23
2022/01/05 07:00:02;;;;;;;2.70;2.20;;;;;;;8.77;73.42;97063.68;105140;1270;61073;-23
2022/01/05 07:02:32;;;;;;;2.30;1.80;;;;;;;8.75;72.81;97059.53;104992;1270;74314;-22
2022/01/05 07:05:00;;;;;;;4.90;2.60;;;;;;;8.68;73.35;97081.41;104893;1270;76320;-24
2022/01/05 07:07:28;;;;;;;2.80;2.00;;;;;;;8.34;74.36;97080.55;104954;1270;72940;-23
2022/01/05 07:09:57;;;;;;;4.20;2.70;;;;;;;8.24;74.64;97089.67;104938;1270;61136;-24
2022/01/05 07:12:25;;;;;;;2.40;2.10;;;;;;;8.23;74.57;97096.72;104811;1270;61150;-24
2022/01/05 07:14:54;;;;;;;3.60;2.20;;;;;;;8.46;73.59;97101.46;104770;1270;74487;-23
2022/01/05 07:17:23;;;;;;;5.20;2.50;;;;;;;8.57;72.91;97113.89;104978;1270;74338;-24
2022/01/05 07:19:51;;;;;;;3.70;2.50;;;;;;;8.47;73.45;97126.63;104933;1270;74167;-24
2022/01/05 07:22:20;;;;;;;3.20;2.60;;;;;;;8.25;73.91;97121.06;105197;1270;61020;-24
2022/01/05 07:24:48;;;;;;;4.40;3.00;;;;;;;8.05;74.73;97121.48;105150;1270;61033;-24
2022/01/05 07:27:17;;;;;;;2.90;1.80;;;;;;;7.99;75.14;97132.98;105201;1270;75783;-24
2022/01/05 07:29:46;;;;;;;3.60;2.50;;;;;;;8.42;73.52;97127.16;105122;1270;76070;-24
2022/01/05 07:32:14;;;;;;;4.20;2.70;;;;;;;8.61;72.65;97125.35;104965;1273;74496;-24
2022/01/05 07:34:43;;;;;;;6.10;2.70;;;;;;;8.57;72.85;97129.60;104959;1270;61161;-24
2022/01/05 07:37:11;;;;;;;5.90;2.90;;;;;;;8.48;73.26;97134.15;104907;1270;62035;-24
2022/01/05 07:39:41;;;;;;;6.20;2.50;;;;;;;8.17;74.29;97128.23;105149;1271;75359;-24
2022/01/05 07:42:11;;;;;;;3.50;2.80;;;;;;;8.04;74.41;97124.10;105084;1270;74985;-23
2022/01/05 07:44:40;;;;;;;5.60;2.40;;;;;;;7.90;74.40;97120.80;104847;1271;74289;-23
2022/01/05 07:47:09;;;;;;;3.60;2.10;;;;;;;8.29;72.18;97111.31;104772;1270;61543;-24
2022/01/05 07:49:38;;;;;;;5.10;2.60;;;;;;;8.46;70.45;97107.11;104956;1270;61048;-24
2022/01/05 07:52:07;;;;;;;4.10;2.80;;;;;;;8.16;70.31;97099.38;104845;1271;75653;-24
2022/01/05 07:54:38;;;;;;;4.20;2.40;;;;;;;8.00;70.60;97108.21;104925;1270;74911;-23
2022/01/05 07:57:07;;;;;;;3.10;2.40;;;;;;;7.94;70.96;97109.95;104910;1270;74426;-24
2022/01/05 07:59:36;;;;;;;3.80;2.80;;;;;;;7.93;70.95;97120.33;104944;1273;60989;-22
2022/01/05 08:02:04;;;;;;;3.40;2.40;;;;;;;7.87;71.20;97124.91;105146;1270;61070;-22
2022/01/05 08:04:32;;;;;;;3.20;2.10;;;;;;;7.99;71.08;97130.23;105180;1270;72920;-22
2022/01/05 08:07:01;;;;;;;3.10;2.20;;;;;;;8.52;69.54;97137.33;105136;1270;75115;-22
2022/01/05 08:09:30;;;;;;;3.30;2.10;;;;;;;8.67;68.71;97137.39;104985;1270;73156;-22
2022/01/05 08:11:58;;;;;;;3.00;2.30;;;;;;;8.74;68.67;97137.73;104929;1270;60950;-22
2022/01/05 08:14:27;;;;;;;4.20;2.60;;;;;;;8.60;69.54;97145.50;105116;1270;61016;-22
2022/01/05 08:16:55;;;;;;;3.20;2.00;;;;;;;8.37;70.54;97146.64;105036;1270;75353;-22
2022/01/05 08:19:23;;;;;;;2.90;1.80;;;;;;;8.24;70.00;97144.56;105139;1270;74982;-21
2022/01/05 08:21:51;;;;;;;3.60;2.40;;;;;;;8.07;71.02;97147.93;105106;1270;74437;-22
2022/01/05 08:24:20;;;;;;;3.10;2.00;;;;;;;8.02;71.35;97145.48;104964;1270;62415;-22
2022/01/05 08:26:48;;;;;;;4.90;2.60;;;;;;;8.27;70.11;97145.58;104875;1270;61047;-24
2022/01/05 08:29:16;;;;;;;3.50;2.20;;;;;;;8.50;69.38;97158.17;104884;1270;73148;-23
2022/01/05 08:31:45;;;;;;;3.40;1.70;;;;;;;8.56;68.92;97158.77;104773;1270;75239;-24
2022/01/05 08:34:13;;;;;;;4.30;2.50;;;;;;;8.40;69.36;97162.73;104997;1270;74517;-23
2022/01/05 08:36:42;;;;;;;3.30;2.60;;;;;;;8.25;69.82;97163.23;104737;1270;61554;-22
2022/01/05 08:39:10;;;;;;;4.20;2.80;;;;;;;8.14;70.21;97167.50;104919;1270;61225;-24
2022/01/05 08:41:38;;;;;;;4.20;3.10;;;;;;;7.87;70.57;97165.12;104966;1270;74611;-24
2022/01/05 08:44:06;;;;;;;4.30;2.90;;;;;;;7.74;71.49;97173.85;104931;1269;74973;-22
2022/01/05 08:46:34;;;;;;;5.00;2.60;;;;;;;7.93;71.71;97176.80;104958;1270;74844;-23
2022/01/05 08:49:03;;;;;;;4.00;2.20;;;;;;;8.48;69.84;97176.09;104909;1270;61809;-23
2022/01/05 08:51:31;;;;;;;3.80;2.30;;;;;;;8.84;68.50;97176.69;104734;1270;61087;-23
2022/01/05 08:53:59;;;;;;;3.60;2.60;;;;;;;8.75;68.95;97177.20;104934;1270;75607;-23
2022/01/05 08:56:28;;;;;;;3.10;2.40;;;;;;;8.29;69.93;97177.52;104910;1270;74311;-23
2022/01/05 08:58:56;;;;;;;4.40;2.80;;;;;;;8.19;70.60;97188.71;104960;1270;74199;-23
2022/01/05 09:01:24;;;;;;;4.80;3.00;;;;;;;8.08;70.49;97185.88;105152;1270;61133;-22
2022/01/05 09:03:53;;;;;;;3.10;2.00;;;;;;;7.71;71.59;97187.67;104999;1270;61156;-22
2022/01/05 09:06:22;;;;;;;4.70;2.90;;;;;;;7.64;71.65;97175.89;104884;1270;75280;-22
2022/01/05 09:08:50;;;;;;;3.60;2.10;;;;;;;7.75;71.56;97177.95;104835;1270;76055;-23
2022/01/05 09:11:22;;;;;;;2.60;2.10;;;;;;;8.22;69.75;97170.29;104896;1270;73377;-23
2022/01/05 09:13:51;;;;;;;6.40;2.40;;;;;;;8.29;69.57;97176.52;104980;1270;61148;-23
2022/01/05 09:16:20;;;;;;;4.70;2.30;;;;;;;8.19;70.23;97182.68;105061;1270;61126;-23
2022/01/05 09:18:50;;;;;;;3.80;2.30;;;;;;;8.07;70.91;97184.05;104968;1270;74551;-22
2022/01/05 09:21:18;;;;;;;4.50;3.10;;;;;;;7.80;71.98;97183.11;104710;1271;74943;-23
2022/01/05 09:23:46;;;;;;;4.50;2.50;;;;;;;7.60;72.85;97183.55;104906;1270;74757;-22
2022/01/05 09:26:15;;;;;;;4.30;2.80;;;;;;;7.55;73.48;97178.81;105005;1270;62291;-24
2022/01/05 09:28:44;;;;;;;5.30;2.90;;;;;;;7.47;74.22;97177.89;105004;1270;61063;-24
2022/01/05 09:31:13;;;;;;;3.50;2.10;;;;;;;7.97;72.30;97176.56;104991;1270;75584;-24
2022/01/05 09:33:41;;;;;;;4.10;2.80;;;;;;;8.34;71.61;97172.41;104938;1270;73991;-24
2022/01/05 09:36:30;;;;;;;3.60;2.70;;;;;;;8.24;71.22;97174.44;105061;1270;74509;-24
2022/01/05 09:42:05;;;;;;;4.90;3.40;;;;;;;7.83;72.42;97172.83;105022;1270;62209;-24
2022/01/05 09:44:43;;;;;;;4.60;3.30;;;;;;;7.56;73.34;97170.10;104918;1270;75571;-24
2022/01/05 09:47:38;;;;;;;5.60;2.40;;;;;;;7.59;73.20;97168.48;104874;1271;75089;-24
2022/01/05 09:50:10;;;;;;;3.10;2.30;;;;;;;8.10;71.19;97170.11;105088;1271;74336;-22
2022/01/05 09:52:41;;;;;;;5.20;2.80;;;;;;;8.04;70.76;97171.89;104765;1270;61139;-24
2022/01/05 09:55:11;;;;;;;4.90;2.80;;;;;;;8.00;71.09;97170.94;104686;1270;61254;-24
2022/01/05 09:57:42;;;;;;;5.30;2.50;;;;;;;7.75;71.23;97163.13;104726;1271;75843;-24
2022/01/05 10:00:12;;;;;;;3.00;2.50;;;;;;;7.56;72.25;97165.63;104955;1271;75810;-23
2022/01/05 10:02:41;;;;;;;4.90;2.90;;;;;;;7.55;72.73;97161.04;105135;1270;72571;-25
2022/01/05 10:05:10;;;;;;;3.80;2.50;;;;;;;7.61;71.99;97158.54;104792;1270;62054;-23
2022/01/05 10:07:39;;;;;;;3.70;2.20;;;;;;;7.78;71.91;97159.27;105019;1270;61147;-23
2022/01/05 10:10:08;;;;;;;3.00;2.40;;;;;;;8.29;69.96;97158.86;105228;1270;75570;-24
2022/01/05 10:12:38;;;;;;;5.20;2.70;;;;;;;8.12;70.04;97160.52;105139;1270;75072;-24
2022/01/05 10:15:13;;;;;;;3.90;3.00;;;;;;;8.03;70.26;97159.95;104990;1270;74597;-24
2022/01/05 10:17:41;;;;;;;3.60;2.40;;;;;;;7.83;70.73;97153.08;104929;1270;61221;-24
2022/01/05 10:20:11;;;;;;;4.10;2.90;;;;;;;7.81;70.82;97156.23;105117;1270;61028;-24
2022/01/05 10:22:44;;;;;;;3.90;2.50;;;;;;;7.53;71.87;97159.30;104802;1270;74496;-23
2022/01/05 10:25:17;;;;;;;4.00;3.00;;;;;;;7.42;72.23;97161.16;104831;1271;75974;-23
2022/01/05 10:28:02;;;;;;;5.40;2.40;;;;;;;7.34;73.24;97160.31;104869;1270;73023;-23
2022/01/05 10:30:37;;;;;;;3.20;2.10;;;;;;;7.86;72.06;97160.23;104877;1270;61160;-23
2022/01/05 10:33:06;;;;;;;4.20;2.90;;;;;;;7.96;70.50;97155.11;104891;1271;61768;-23
2022/01/05 10:35:35;;;;;;;4.10;2.60;;;;;;;8.03;70.16;97158.73;104808;1271;72123;-22
2022/01/05 10:38:09;;;;;;;4.70;3.10;;;;;;;7.73;70.94;97152.23;104927;1270;76284;-22
2022/01/05 10:40:38;;;;;;;5.70;3.70;;;;;;;7.55;71.46;97146.54;105013;1270;71619;-23
2022/01/05 10:43:11;;;;;;;5.20;3.00;;;;;;;7.49;71.81;97144.55;105017;1271;62133;-23
2022/01/05 10:45:47;;;;;;;;;;;;;;;7.36;72.26;97144.51;104893;1270;62023;-23
2022/01/05 10:48:20;;;;;;;4.60;2.90;;;;;;;7.23;72.56;97146.25;104840;1270;74512;-23
2022/01/05 10:51:01;;;;;;;3.30;2.70;;;;;;;7.27;72.60;97144.11;104827;1271;76470;-24
2022/01/05 10:53:29;;;;;;;5.30;2.90;;;;;;;7.91;71.30;97141.24;104880;1270;74492;-24
2022/01/05 10:55:57;;;;;;;5.30;3.00;;;;;;;8.27;69.52;97138.80;105124;1270;61179;-24
2022/01/05 10:58:26;;;;;;;4.20;3.10;;;;;;;8.31;69.30;97137.94;105046;1270;61051;-22
2022/01/05 11:00:55;;;;;;;4.40;3.40;;;;;;;8.28;68.82;97138.22;104758;1271;75062;-23
2022/01/05 11:03:41;;;;;;;4.40;3.10;;;;;;;8.11;69.65;97140.81;104849;1271;76039;-24
2022/01/05 11:06:12;;;;;;;4.00;3.10;;;;;;;7.89;70.37;97147.01;105106;1271;73601;-24
2022/01/05 11:08:55;;;;;;;4.60;3.30;;;;;;;7.60;71.19;97144.82;104875;1270;62308;-24
2022/01/05 11:11:43;;;;;;;5.30;3.40;;;;;;;7.39;72.07;97144.98;105114;1270;61020;-23
2022/01/05 11:14:13;;;;;;;4.30;2.70;;;;;;;7.28;73.04;97144.19;104897;1270;74099;-22
2022/01/05 11:16:53;;;;;;;4.60;2.80;;;;;;;8.01;71.15;97146.77;104777;1271;76037;-22
2022/01/05 11:19:31;;;;;;;4.30;2.80;;;;;;;8.48;69.39;97144.21;104960;1270;74384;-22
2022/01/05 11:22:16;;;;;;;6.00;3.30;;;;;;;8.48;69.19;97146.13;104771;1271;61143;-23
2022/01/05 11:24:52;;;;;;;4.60;3.10;;;;;;;8.19;70.14;97145.31;104759;1271;61167;-22
2022/01/05 11:27:27;;;;;;;4.30;2.70;;;;;;;8.00;70.93;97155.08;104662;1271;75745;-22
2022/01/05 11:29:55;;;;;;;3.80;3.10;;;;;;;7.89;71.58;97156.80;104764;1273;76083;-22
2022/01/05 11:32:27;;;;;;;3.50;2.60;;;;;;;7.77;71.86;97157.33;104920;1270;72331;-22
2022/01/05 11:34:56;;;;;;;4.80;3.00;;;;;;;7.69;72.16;97158.17;104709;1270;61152;-22
2022/01/05 11:37:24;;;;;;;3.50;2.30;;;;;;;7.58;72.77;97161.24;104956;1270;61214;-24
2022/01/05 11:39:57;;;;;;;4.00;2.20;;;;;;;8.07;71.93;97163.31;105010;1270;74511;-22
2022/01/05 11:42:29;;;;;;;5.10;3.20;;;;;;;8.48;69.68;97152.30;104772;1270;74390;-23
2022/01/05 11:44:57;;;;;;;3.70;2.60;;;;;;;8.53;69.55;97152.90;104804;1270;74661;-23
2022/01/05 11:47:32;;;;;;;3.20;2.40;;;;;;;8.41;69.86;97153.00;105015;1270;62083;-23
2022/01/05 11:50:13;;;;;;;5.90;3.60;;;;;;;8.16;70.46;97156.86;105055;1273;61334;-22
2022/01/05 11:52:55;;;;;;;4.40;3.00;;;;;;;7.97;71.26;97159.86;105064;1272;76081;-25